sensor_id;sensor_type;location;lat;lon;timestamp;P1;durP1;ratioP1;P2;durP2;ratioP2
44824;SDS011;30542;47.928;2.138;2022-07-23T00:02:16;8.73;;;8.02;;
44824;SDS011;30542;47.928;2.138;2022-07-23T00:07:17;8.53;;;7.90;;
44824;SDS011;30542;47.928;2.138;2022-07-23T00:12:17;9.07;;;8.37;;
44824;SDS011;30542;47.928;2.138;2022-07-23T00:17:18;8.43;;;7.82;;
44824;SDS011;30542;47.928;2.138;2022-07-23T00:22:18;9.00;;;8.30;;
44824;SDS011;30542;47.928;2.138;2022-07-23T00:27:19;9.77;;;8.97;;
44824;SDS011;30542;47.928;2.138;2022-07-23T00:32:19;8.93;;;8.17;;
44824;SDS011;30542;47.928;2.138;2022-07-23T00:37:19;8.97;;;8.17;;
44824;SDS011;30542;47.928;2.138;2022-07-23T00:42:20;8.80;;;8.00;;
44824;SDS011;30542;47.928;2.138;2022-07-23T00:47:20;9.53;;;8.73;;
44824;SDS011;30542;47.928;2.138;2022-07-23T00:52:20;8.47;;;7.77;;
44824;SDS011;30542;47.928;2.138;2022-07-23T00:57:21;9.25;;;8.52;;
44824;SDS011;30542;47.928;2.138;2022-07-23T01:02:21;9.55;;;8.75;;
44824;SDS011;30542;47.928;2.138;2022-07-23T01:07:22;8.73;;;7.90;;
44824;SDS011;30542;47.928;2.138;2022-07-23T01:12:23;9.13;;;8.43;;
44824;SDS011;30542;47.928;2.138;2022-07-23T01:17:23;9.00;;;8.13;;
44824;SDS011;30542;47.928;2.138;2022-07-23T01:22:28;9.00;;;8.10;;
44824;SDS011;30542;47.928;2.138;2022-07-23T01:27:29;8.60;;;7.97;;
44824;SDS011;30542;47.928;2.138;2022-07-23T01:32:30;8.82;;;8.05;;
44824;SDS011;30542;47.928;2.138;2022-07-23T01:37:30;9.23;;;8.37;;
44824;SDS011;30542;47.928;2.138;2022-07-23T01:42:31;7.68;;;7.18;;
44824;SDS011;30542;47.928;2.138;2022-07-23T01:47:31;7.82;;;7.13;;
44824;SDS011;30542;47.928;2.138;2022-07-23T01:52:32;7.55;;;6.95;;
44824;SDS011;30542;47.928;2.138;2022-07-23T01:57:32;7.87;;;7.27;;
44824;SDS011;30542;47.928;2.138;2022-07-23T02:02:33;8.05;;;7.22;;
44824;SDS011;30542;47.928;2.138;2022-07-23T02:07:33;7.33;;;6.43;;
44824;SDS011;30542;47.928;2.138;2022-07-23T02:12:35;7.03;;;6.43;;
44824;SDS011;30542;47.928;2.138;2022-07-23T02:17:36;6.03;;;5.63;;
44824;SDS011;30542;47.928;2.138;2022-07-23T02:22:37;6.25;;;5.75;;
44824;SDS011;30542;47.928;2.138;2022-07-23T02:27:39;6.15;;;5.75;;
44824;SDS011;30542;47.928;2.138;2022-07-23T02:32:40;6.10;;;5.60;;
44824;SDS011;30542;47.928;2.138;2022-07-23T02:37:41;6.55;;;6.05;;
44824;SDS011;30542;47.928;2.138;2022-07-23T02:42:42;5.97;;;5.47;;
44824;SDS011;30542;47.928;2.138;2022-07-23T02:47:42;5.73;;;5.33;;
44824;SDS011;30542;47.928;2.138;2022-07-23T02:52:42;5.70;;;5.03;;
44824;SDS011;30542;47.928;2.138;2022-07-23T02:57:43;5.47;;;4.97;;
44824;SDS011;30542;47.928;2.138;2022-07-23T03:02:43;5.73;;;5.17;;
44824;SDS011;30542;47.928;2.138;2022-07-23T03:07:44;5.35;;;4.95;;
44824;SDS011;30542;47.928;2.138;2022-07-23T03:12:44;5.10;;;4.80;;
44824;SDS011;30542;47.928;2.138;2022-07-23T03:17:44;6.20;;;5.70;;
44824;SDS011;30542;47.928;2.138;2022-07-23T03:22:45;5.87;;;5.37;;
44824;SDS011;30542;47.928;2.138;2022-07-23T03:27:45;5.00;;;4.60;;
44824;SDS011;30542;47.928;2.138;2022-07-23T03:32:45;6.30;;;5.80;;
44824;SDS011;30542;47.928;2.138;2022-07-23T03:37:46;5.80;;;5.30;;
44824;SDS011;30542;47.928;2.138;2022-07-23T03:42:47;6.47;;;5.97;;
44824;SDS011;30542;47.928;2.138;2022-07-23T03:47:47;5.93;;;5.53;;
44824;SDS011;30542;47.928;2.138;2022-07-23T03:52:47;6.10;;;5.60;;
44824;SDS011;30542;47.928;2.138;2022-07-23T03:57:48;6.73;;;6.17;;
44824;SDS011;30542;47.928;2.138;2022-07-23T04:02:48;5.97;;;5.47;;
44824;SDS011;30542;47.928;2.138;2022-07-23T04:07:49;7.20;;;6.60;;
44824;SDS011;30542;47.928;2.138;2022-07-23T04:12:49;7.23;;;6.63;;
44824;SDS011;30542;47.928;2.138;2022-07-23T04:17:49;5.93;;;5.53;;
44824;SDS011;30542;47.928;2.138;2022-07-23T04:22:50;7.07;;;6.47;;
44824;SDS011;30542;47.928;2.138;2022-07-23T04:27:50;7.13;;;6.63;;
44824;SDS011;30542;47.928;2.138;2022-07-23T04:32:50;7.63;;;6.87;;
44824;SDS011;30542;47.928;2.138;2022-07-23T04:37:51;8.10;;;7.40;;
44824;SDS011;30542;47.928;2.138;2022-07-23T04:42:51;8.20;;;7.50;;
44824;SDS011;30542;47.928;2.138;2022-07-23T04:47:52;8.25;;;7.55;;
44824;SDS011;30542;47.928;2.138;2022-07-23T04:52:52;7.93;;;7.17;;
44824;SDS011;30542;47.928;2.138;2022-07-23T04:57:52;7.93;;;7.23;;
44824;SDS011;30542;47.928;2.138;2022-07-23T05:02:53;8.70;;;8.00;;
44824;SDS011;30542;47.928;2.138;2022-07-23T05:07:53;8.77;;;8.00;;
44824;SDS011;30542;47.928;2.138;2022-07-23T05:12:53;10.03;;;9.13;;
44824;SDS011;30542;47.928;2.138;2022-07-23T05:17:54;9.77;;;9.03;;
44824;SDS011;30542;47.928;2.138;2022-07-23T05:22:54;10.90;;;9.80;;
44824;SDS011;30542;47.928;2.138;2022-07-23T05:27:54;11.97;;;10.80;;
44824;SDS011;30542;47.928;2.138;2022-07-23T05:32:55;12.23;;;11.23;;
44824;SDS011;30542;47.928;2.138;2022-07-23T05:37:55;11.10;;;10.00;;
44824;SDS011;30542;47.928;2.138;2022-07-23T05:42:55;11.10;;;10.10;;
44824;SDS011;30542;47.928;2.138;2022-07-23T05:47:56;10.73;;;9.13;;
44824;SDS011;30542;47.928;2.138;2022-07-23T05:52:56;10.97;;;10.07;;
44824;SDS011;30542;47.928;2.138;2022-07-23T05:57:57;12.00;;;10.77;;
44824;SDS011;30542;47.928;2.138;2022-07-23T06:02:58;11.57;;;10.48;;
44824;SDS011;30542;47.928;2.138;2022-07-23T06:07:59;12.55;;;11.38;;
44824;SDS011;30542;47.928;2.138;2022-07-23T06:12:59;11.97;;;10.87;;
44824;SDS011;30542;47.928;2.138;2022-07-23T06:18:00;11.33;;;10.23;;
44824;SDS011;30542;47.928;2.138;2022-07-23T06:23:00;11.57;;;10.48;;
44824;SDS011;30542;47.928;2.138;2022-07-23T06:28:00;10.37;;;9.43;;
44824;SDS011;30542;47.928;2.138;2022-07-23T06:33:01;9.80;;;8.87;;
44824;SDS011;30542;47.928;2.138;2022-07-23T06:38:01;10.57;;;9.57;;
44824;SDS011;30542;47.928;2.138;2022-07-23T06:43:01;10.27;;;9.27;;
44824;SDS011;30542;47.928;2.138;2022-07-23T06:48:02;9.67;;;8.77;;
44824;SDS011;30542;47.928;2.138;2022-07-23T06:53:02;10.40;;;9.40;;
44824;SDS011;30542;47.928;2.138;2022-07-23T06:58:03;9.67;;;8.87;;
44824;SDS011;30542;47.928;2.138;2022-07-23T07:03:03;9.87;;;8.87;;
44824;SDS011;30542;47.928;2.138;2022-07-23T07:08:04;10.52;;;9.18;;
44824;SDS011;30542;47.928;2.138;2022-07-23T07:13:04;9.77;;;8.90;;
44824;SDS011;30542;47.928;2.138;2022-07-23T07:18:05;10.17;;;9.20;;
44824;SDS011;30542;47.928;2.138;2022-07-23T07:23:05;9.43;;;8.63;;
44824;SDS011;30542;47.928;2.138;2022-07-23T07:28:05;8.40;;;7.77;;
44824;SDS011;30542;47.928;2.138;2022-07-23T07:33:06;9.27;;;8.57;;
44824;SDS011;30542;47.928;2.138;2022-07-23T07:38:06;10.27;;;9.20;;
44824;SDS011;30542;47.928;2.138;2022-07-23T07:43:06;9.73;;;8.73;;
44824;SDS011;30542;47.928;2.138;2022-07-23T07:48:07;8.40;;;7.60;;
44824;SDS011;30542;47.928;2.138;2022-07-23T07:53:07;8.93;;;8.23;;
44824;SDS011;30542;47.928;2.138;2022-07-23T07:58:08;9.10;;;8.30;;
44824;SDS011;30542;47.928;2.138;2022-07-23T08:03:09;9.50;;;8.53;;
44824;SDS011;30542;47.928;2.138;2022-07-23T08:08:09;8.83;;;8.03;;
44824;SDS011;30542;47.928;2.138;2022-07-23T08:13:14;9.52;;;7.93;;
44824;SDS011;30542;47.928;2.138;2022-07-23T08:18:16;9.48;;;8.48;;
44824;SDS011;30542;47.928;2.138;2022-07-23T08:23:16;8.97;;;8.17;;
44824;SDS011;30542;47.928;2.138;2022-07-23T08:28:19;9.90;;;8.77;;
44824;SDS011;30542;47.928;2.138;2022-07-23T08:33:19;9.73;;;8.83;;
44824;SDS011;30542;47.928;2.138;2022-07-23T08:38:20;8.83;;;7.93;;
44824;SDS011;30542;47.928;2.138;2022-07-23T08:43:22;8.90;;;8.00;;
44824;SDS011;30542;47.928;2.138;2022-07-23T08:48:25;9.25;;;8.25;;
44824;SDS011;30542;47.928;2.138;2022-07-23T08:53:27;9.23;;;8.43;;
44824;SDS011;30542;47.928;2.138;2022-07-23T08:58:29;9.98;;;9.00;;
44824;SDS011;30542;47.928;2.138;2022-07-23T09:03:31;9.38;;;8.48;;
44824;SDS011;30542;47.928;2.138;2022-07-23T09:13:47;9.55;;;8.63;;
44824;SDS011;30542;47.928;2.138;2022-07-23T09:18:54;9.73;;;8.43;;
44824;SDS011;30542;47.928;2.138;2022-07-23T09:29:08;8.85;;;8.07;;
44824;SDS011;30542;47.928;2.138;2022-07-23T09:34:25;8.40;;;7.60;;
44824;SDS011;30542;47.928;2.138;2022-07-23T09:39:31;9.30;;;8.50;;
44824;SDS011;30542;47.928;2.138;2022-07-23T09:44:33;9.45;;;8.55;;
44824;SDS011;30542;47.928;2.138;2022-07-23T09:50:27;9.05;;;8.35;;
44824;SDS011;30542;47.928;2.138;2022-07-23T09:55:09;8.25;;;7.50;;
44824;SDS011;30542;47.928;2.138;2022-07-23T10:00:09;7.93;;;7.28;;
44824;SDS011;30542;47.928;2.138;2022-07-23T10:05:10;8.98;;;8.07;;
44824;SDS011;30542;47.928;2.138;2022-07-23T10:10:11;8.60;;;7.68;;
44824;SDS011;30542;47.928;2.138;2022-07-23T10:15:13;9.18;;;7.45;;
44824;SDS011;30542;47.928;2.138;2022-07-23T10:20:13;8.90;;;7.43;;
44824;SDS011;30542;47.928;2.138;2022-07-23T10:35:44;10.88;;;7.95;;
44824;SDS011;30542;47.928;2.138;2022-07-23T10:45:54;7.80;;;7.10;;
44824;SDS011;30542;47.928;2.138;2022-07-23T10:56:13;7.82;;;7.22;;
44824;SDS011;30542;47.928;2.138;2022-07-23T11:07:19;7.57;;;6.97;;
44824;SDS011;30542;47.928;2.138;2022-07-23T11:17:19;7.70;;;7.10;;
44824;SDS011;30542;47.928;2.138;2022-07-23T11:22:33;6.65;;;6.13;;
44824;SDS011;30542;47.928;2.138;2022-07-23T11:27:46;9.95;;;7.50;;
44824;SDS011;30542;47.928;2.138;2022-07-23T11:32:48;8.88;;;8.02;;
44824;SDS011;30542;47.928;2.138;2022-07-23T11:37:49;9.80;;;8.00;;
44824;SDS011;30542;47.928;2.138;2022-07-23T11:42:58;8.52;;;7.57;;
44824;SDS011;30542;47.928;2.138;2022-07-23T11:47:59;8.35;;;7.55;;
44824;SDS011;30542;47.928;2.138;2022-07-23T11:53:00;8.20;;;7.50;;
44824;SDS011;30542;47.928;2.138;2022-07-23T11:58:01;8.35;;;7.65;;
44824;SDS011;30542;47.928;2.138;2022-07-23T12:03:02;7.78;;;7.00;;
44824;SDS011;30542;47.928;2.138;2022-07-23T12:08:04;7.53;;;6.93;;
44824;SDS011;30542;47.928;2.138;2022-07-23T12:13:16;7.93;;;7.18;;
44824;SDS011;30542;47.928;2.138;2022-07-23T12:18:23;7.60;;;7.00;;
44824;SDS011;30542;47.928;2.138;2022-07-23T12:23:25;7.07;;;6.47;;
44824;SDS011;30542;47.928;2.138;2022-07-23T12:28:32;7.10;;;6.50;;
44824;SDS011;30542;47.928;2.138;2022-07-23T12:33:34;7.10;;;6.50;;
44824;SDS011;30542;47.928;2.138;2022-07-23T12:38:38;7.65;;;7.00;;
44824;SDS011;30542;47.928;2.138;2022-07-23T12:43:43;6.75;;;6.35;;
44824;SDS011;30542;47.928;2.138;2022-07-23T12:53:56;6.82;;;6.28;;
44824;SDS011;30542;47.928;2.138;2022-07-23T13:09:07;7.35;;;6.75;;
44824;SDS011;30542;47.928;2.138;2022-07-23T13:14:09;6.40;;;5.90;;
44824;SDS011;30542;47.928;2.138;2022-07-23T13:19:09;5.90;;;5.50;;
44824;SDS011;30542;47.928;2.138;2022-07-23T13:24:10;6.80;;;6.20;;
44824;SDS011;30542;47.928;2.138;2022-07-23T13:29:12;6.85;;;6.25;;
44824;SDS011;30542;47.928;2.138;2022-07-23T13:34:12;6.68;;;6.18;;
44824;SDS011;30542;47.928;2.138;2022-07-23T13:39:12;6.60;;;6.10;;
44824;SDS011;30542;47.928;2.138;2022-07-23T13:44:13;7.03;;;6.43;;
44824;SDS011;30542;47.928;2.138;2022-07-23T13:49:13;6.23;;;5.83;;
44824;SDS011;30542;47.928;2.138;2022-07-23T13:54:13;5.87;;;5.47;;
44824;SDS011;30542;47.928;2.138;2022-07-23T13:59:14;6.30;;;5.80;;
44824;SDS011;30542;47.928;2.138;2022-07-23T14:04:14;6.40;;;5.80;;
44824;SDS011;30542;47.928;2.138;2022-07-23T14:09:15;6.13;;;5.67;;
44824;SDS011;30542;47.928;2.138;2022-07-23T14:14:15;5.87;;;5.47;;
44824;SDS011;30542;47.928;2.138;2022-07-23T14:19:15;6.27;;;5.77;;
44824;SDS011;30542;47.928;2.138;2022-07-23T14:24:16;6.30;;;5.80;;
44824;SDS011;30542;47.928;2.138;2022-07-23T14:29:17;6.15;;;5.68;;
44824;SDS011;30542;47.928;2.138;2022-07-23T14:34:17;6.47;;;5.88;;
44824;SDS011;30542;47.928;2.138;2022-07-23T14:39:18;6.87;;;6.20;;
44824;SDS011;30542;47.928;2.138;2022-07-23T14:44:18;5.82;;;5.43;;
44824;SDS011;30542;47.928;2.138;2022-07-23T14:49:19;6.00;;;5.60;;
44824;SDS011;30542;47.928;2.138;2022-07-23T14:54:19;5.50;;;5.10;;
44824;SDS011;30542;47.928;2.138;2022-07-23T14:59:20;5.93;;;5.33;;
44824;SDS011;30542;47.928;2.138;2022-07-23T15:04:20;5.90;;;5.50;;
44824;SDS011;30542;47.928;2.138;2022-07-23T15:09:21;5.90;;;5.47;;
44824;SDS011;30542;47.928;2.138;2022-07-23T15:14:21;5.60;;;5.10;;
44824;SDS011;30542;47.928;2.138;2022-07-23T15:19:22;4.93;;;4.53;;
44824;SDS011;30542;47.928;2.138;2022-07-23T15:24:22;6.07;;;5.67;;
44824;SDS011;30542;47.928;2.138;2022-07-23T15:29:23;5.40;;;5.00;;
44824;SDS011;30542;47.928;2.138;2022-07-23T15:34:23;6.00;;;5.50;;
44824;SDS011;30542;47.928;2.138;2022-07-23T15:39:24;5.95;;;5.55;;
44824;SDS011;30542;47.928;2.138;2022-07-23T15:44:25;5.53;;;5.13;;
44824;SDS011;30542;47.928;2.138;2022-07-23T15:49:25;5.85;;;5.35;;
44824;SDS011;30542;47.928;2.138;2022-07-23T15:54:27;5.68;;;5.25;;
44824;SDS011;30542;47.928;2.138;2022-07-23T15:59:27;5.00;;;4.50;;
44824;SDS011;30542;47.928;2.138;2022-07-23T16:04:27;5.30;;;4.80;;
44824;SDS011;30542;47.928;2.138;2022-07-23T16:09:28;5.63;;;5.13;;
44824;SDS011;30542;47.928;2.138;2022-07-23T16:14:28;5.68;;;5.20;;
44824;SDS011;30542;47.928;2.138;2022-07-23T16:19:28;5.23;;;4.83;;
44824;SDS011;30542;47.928;2.138;2022-07-23T16:24:29;5.50;;;5.10;;
44824;SDS011;30542;47.928;2.138;2022-07-23T16:29:29;5.20;;;4.90;;
44824;SDS011;30542;47.928;2.138;2022-07-23T16:34:29;5.93;;;5.53;;
44824;SDS011;30542;47.928;2.138;2022-07-23T16:39:30;5.00;;;4.70;;
44824;SDS011;30542;47.928;2.138;2022-07-23T16:44:30;5.87;;;5.37;;
44824;SDS011;30542;47.928;2.138;2022-07-23T16:49:31;5.47;;;5.07;;
44824;SDS011;30542;47.928;2.138;2022-07-23T16:54:33;4.72;;;4.38;;
44824;SDS011;30542;47.928;2.138;2022-07-23T16:59:34;5.03;;;4.70;;
44824;SDS011;30542;47.928;2.138;2022-07-23T17:04:34;5.47;;;5.07;;
44824;SDS011;30542;47.928;2.138;2022-07-23T17:09:35;5.38;;;4.97;;
44824;SDS011;30542;47.928;2.138;2022-07-23T17:14:35;4.28;;;3.97;;
44824;SDS011;30542;47.928;2.138;2022-07-23T17:19:36;5.03;;;4.65;;
44824;SDS011;30542;47.928;2.138;2022-07-23T17:24:37;5.57;;;4.88;;
44824;SDS011;30542;47.928;2.138;2022-07-23T17:29:38;5.30;;;4.90;;
44824;SDS011;30542;47.928;2.138;2022-07-23T17:34:38;4.88;;;4.47;;
44824;SDS011;30542;47.928;2.138;2022-07-23T17:39:39;5.60;;;4.60;;
44824;SDS011;30542;47.928;2.138;2022-07-23T17:44:39;5.20;;;4.80;;
44824;SDS011;30542;47.928;2.138;2022-07-23T17:49:39;4.93;;;4.50;;
44824;SDS011;30542;47.928;2.138;2022-07-23T17:54:40;6.73;;;4.60;;
44824;SDS011;30542;47.928;2.138;2022-07-23T17:59:40;5.22;;;4.72;;
44824;SDS011;30542;47.928;2.138;2022-07-23T18:04:40;4.77;;;4.37;;
44824;SDS011;30542;47.928;2.138;2022-07-23T18:09:41;5.43;;;4.97;;
44824;SDS011;30542;47.928;2.138;2022-07-23T18:14:42;5.13;;;4.72;;
44824;SDS011;30542;47.928;2.138;2022-07-23T18:19:42;4.87;;;4.57;;
44824;SDS011;30542;47.928;2.138;2022-07-23T18:24:44;5.53;;;4.93;;
44824;SDS011;30542;47.928;2.138;2022-07-23T18:29:44;5.17;;;4.77;;
44824;SDS011;30542;47.928;2.138;2022-07-23T18:34:45;5.07;;;4.67;;
44824;SDS011;30542;47.928;2.138;2022-07-23T18:39:45;4.63;;;4.33;;
44824;SDS011;30542;47.928;2.138;2022-07-23T18:44:46;4.93;;;4.53;;
44824;SDS011;30542;47.928;2.138;2022-07-23T18:49:46;4.67;;;4.33;;
44824;SDS011;30542;47.928;2.138;2022-07-23T18:54:47;4.33;;;4.03;;
44824;SDS011;30542;47.928;2.138;2022-07-23T18:59:47;5.13;;;4.83;;
44824;SDS011;30542;47.928;2.138;2022-07-23T19:04:47;4.90;;;4.40;;
44824;SDS011;30542;47.928;2.138;2022-07-23T19:09:49;4.57;;;4.18;;
44824;SDS011;30542;47.928;2.138;2022-07-23T19:14:49;4.33;;;4.13;;
44824;SDS011;30542;47.928;2.138;2022-07-23T19:19:50;4.40;;;4.00;;
44824;SDS011;30542;47.928;2.138;2022-07-23T19:24:50;4.97;;;4.67;;
44824;SDS011;30542;47.928;2.138;2022-07-23T19:29:50;5.23;;;4.83;;
44824;SDS011;30542;47.928;2.138;2022-07-23T19:34:51;4.37;;;4.07;;
44824;SDS011;30542;47.928;2.138;2022-07-23T19:39:51;4.43;;;4.13;;
44824;SDS011;30542;47.928;2.138;2022-07-23T19:44:52;4.63;;;4.10;;
44824;SDS011;30542;47.928;2.138;2022-07-23T19:49:53;4.82;;;4.20;;
44824;SDS011;30542;47.928;2.138;2022-07-23T19:54:53;5.13;;;4.00;;
44824;SDS011;30542;47.928;2.138;2022-07-23T19:59:53;4.43;;;4.03;;
44824;SDS011;30542;47.928;2.138;2022-07-23T20:04:54;5.10;;;4.63;;
44824;SDS011;30542;47.928;2.138;2022-07-23T20:09:54;4.50;;;4.10;;
44824;SDS011;30542;47.928;2.138;2022-07-23T20:14:54;4.73;;;4.33;;
44824;SDS011;30542;47.928;2.138;2022-07-23T20:19:55;4.47;;;4.03;;
44824;SDS011;30542;47.928;2.138;2022-07-23T20:24:55;4.37;;;4.07;;
44824;SDS011;30542;47.928;2.138;2022-07-23T20:29:56;4.60;;;4.20;;
44824;SDS011;30542;47.928;2.138;2022-07-23T20:34:56;4.77;;;3.87;;
44824;SDS011;30542;47.928;2.138;2022-07-23T20:39:57;5.47;;;3.95;;
44824;SDS011;30542;47.928;2.138;2022-07-23T20:44:57;4.77;;;4.37;;
44824;SDS011;30542;47.928;2.138;2022-07-23T20:49:58;4.80;;;4.38;;
44824;SDS011;30542;47.928;2.138;2022-07-23T20:54:58;5.18;;;4.70;;
44824;SDS011;30542;47.928;2.138;2022-07-23T20:59:59;5.13;;;4.17;;
44824;SDS011;30542;47.928;2.138;2022-07-23T21:04:59;4.77;;;4.23;;
44824;SDS011;30542;47.928;2.138;2022-07-23T21:10:00;4.80;;;4.43;;
44824;SDS011;30542;47.928;2.138;2022-07-23T21:15:00;4.00;;;3.70;;
44824;SDS011;30542;47.928;2.138;2022-07-23T21:20:00;4.20;;;3.90;;
44824;SDS011;30542;47.928;2.138;2022-07-23T21:25:01;5.13;;;4.22;;
44824;SDS011;30542;47.928;2.138;2022-07-23T21:30:03;4.25;;;3.95;;
44824;SDS011;30542;47.928;2.138;2022-07-23T21:35:04;4.10;;;3.80;;
44824;SDS011;30542;47.928;2.138;2022-07-23T21:40:06;4.45;;;4.22;;
44824;SDS011;30542;47.928;2.138;2022-07-23T21:45:07;4.40;;;4.10;;
44824;SDS011;30542;47.928;2.138;2022-07-23T21:50:08;4.05;;;3.75;;
44824;SDS011;30542;47.928;2.138;2022-07-23T21:55:10;3.78;;;3.47;;
44824;SDS011;30542;47.928;2.138;2022-07-23T22:00:29;4.03;;;3.73;;
44824;SDS011;30542;47.928;2.138;2022-07-23T22:05:33;4.38;;;4.07;;
44824;SDS011;30542;47.928;2.138;2022-07-23T22:10:34;4.15;;;3.85;;
44824;SDS011;30542;47.928;2.138;2022-07-23T22:15:34;4.43;;;4.03;;
44824;SDS011;30542;47.928;2.138;2022-07-23T22:20:34;4.60;;;4.20;;
44824;SDS011;30542;47.928;2.138;2022-07-23T22:25:35;4.97;;;4.57;;
44824;SDS011;30542;47.928;2.138;2022-07-23T22:30:37;4.13;;;3.70;;
44824;SDS011;30542;47.928;2.138;2022-07-23T22:35:37;4.32;;;3.92;;
44824;SDS011;30542;47.928;2.138;2022-07-23T22:40:38;4.37;;;4.10;;
44824;SDS011;30542;47.928;2.138;2022-07-23T22:45:38;4.50;;;4.10;;
44824;SDS011;30542;47.928;2.138;2022-07-23T22:50:39;4.60;;;4.03;;
44824;SDS011;30542;47.928;2.138;2022-07-23T22:55:40;6.10;;;3.97;;
44824;SDS011;30542;47.928;2.138;2022-07-23T23:00:40;4.28;;;3.97;;
44824;SDS011;30542;47.928;2.138;2022-07-23T23:05:41;4.03;;;3.73;;
44824;SDS011;30542;47.928;2.138;2022-07-23T23:10:41;4.20;;;3.80;;
44824;SDS011;30542;47.928;2.138;2022-07-23T23:15:41;4.65;;;4.07;;
44824;SDS011;30542;47.928;2.138;2022-07-23T23:20:42;4.07;;;3.70;;
44824;SDS011;30542;47.928;2.138;2022-07-23T23:25:42;4.53;;;4.00;;
44824;SDS011;30542;47.928;2.138;2022-07-23T23:30:43;4.47;;;4.18;;
44824;SDS011;30542;47.928;2.138;2022-07-23T23:35:45;4.10;;;3.80;;
44824;SDS011;30542;47.928;2.138;2022-07-23T23:40:45;4.17;;;3.80;;
44824;SDS011;30542;47.928;2.138;2022-07-23T23:45:46;4.73;;;4.37;;
44824;SDS011;30542;47.928;2.138;2022-07-23T23:50:46;3.70;;;3.40;;
44824;SDS011;30542;47.928;2.138;2022-07-23T23:55:47;4.57;;;4.15;;
